createdAt,value
2023-05-08T00:01:36.185Z,13.30
2023-05-08T00:03:41.211Z,13.00
2023-05-08T00:05:47.752Z,12.90
2023-05-08T00:08:01.416Z,12.90
2023-05-08T00:10:07.827Z,13.00
2023-05-08T00:12:12.728Z,13.00
2023-05-08T00:14:25.307Z,12.80
2023-05-08T00:16:32.407Z,13.00
2023-05-08T00:18:40.367Z,13.00
2023-05-08T00:20:49.994Z,12.90
2023-05-08T00:23:02.556Z,12.90
2023-05-08T00:25:09.242Z,13.00
2023-05-08T00:27:15.684Z,12.80
2023-05-08T00:29:21.655Z,12.80
2023-05-08T00:31:27.962Z,13.00
2023-05-08T00:33:34.514Z,13.00
2023-05-08T00:35:42.418Z,12.90
2023-05-08T00:37:50.656Z,13.00
2023-05-08T00:40:01.572Z,13.10
2023-05-08T00:42:08.830Z,13.10
2023-05-08T00:44:14.667Z,13.00
2023-05-08T00:46:37.058Z,12.90
2023-05-08T00:48:43.382Z,12.50
2023-05-08T00:50:49.731Z,12.80
2023-05-08T00:52:57.237Z,12.70
2023-05-08T00:55:06.769Z,12.80
2023-05-08T00:57:12.027Z,12.90
2023-05-08T00:59:18.779Z,12.80
2023-05-08T01:01:24.728Z,12.80
2023-05-08T01:03:30.905Z,12.40
2023-05-08T01:05:36.082Z,12.50
2023-05-08T01:07:42.323Z,12.70
2023-05-08T01:09:48.436Z,12.80
2023-05-08T01:12:09.093Z,12.60
2023-05-08T01:14:19.224Z,12.50
2023-05-08T01:16:39.414Z,12.70
2023-05-08T01:18:49.682Z,12.80
2023-05-08T01:21:01.372Z,12.90
2023-05-08T01:23:49.084Z,12.90
2023-05-08T01:26:40.343Z,13.00
2023-05-08T01:29:10.234Z,12.70
2023-05-08T01:31:22.048Z,12.70
2023-05-08T01:33:37.354Z,12.80
2023-05-08T01:35:46.522Z,12.60
2023-05-08T01:37:56.926Z,12.40
2023-05-08T01:40:13.171Z,12.60
2023-05-08T01:42:26.589Z,12.50
2023-05-08T01:44:38.126Z,12.50
2023-05-08T01:46:45.521Z,12.50
2023-05-08T01:49:04.617Z,12.60
2023-05-08T01:51:15.735Z,12.50
2023-05-08T01:53:25.682Z,12.30
2023-05-08T01:55:37.451Z,12.50
2023-05-08T01:57:46.732Z,12.50
2023-05-08T01:59:53.893Z,12.20
2023-05-08T02:02:01.742Z,12.30
2023-05-08T02:04:11.116Z,12.30
2023-05-08T02:06:19.390Z,12.40
2023-05-08T02:08:27.256Z,12.40
2023-05-08T02:10:35.829Z,12.50
2023-05-08T02:12:41.931Z,12.30
2023-05-08T02:14:49.094Z,12.50
2023-05-08T02:16:55.340Z,12.60
2023-05-08T02:19:02.954Z,12.70
2023-05-08T02:21:12.609Z,12.50
2023-05-08T02:23:18.385Z,12.30
2023-05-08T02:25:28.318Z,12.50
2023-05-08T02:27:34.556Z,12.30
2023-05-08T02:29:39.979Z,12.30
2023-05-08T02:31:50.206Z,12.30
2023-05-08T02:33:55.523Z,12.40
2023-05-08T02:36:07.895Z,12.40
2023-05-08T02:38:18.086Z,12.40
2023-05-08T02:40:25.427Z,12.50
2023-05-08T02:42:32.947Z,12.40
2023-05-08T02:44:40.203Z,12.20
2023-05-08T02:46:52.966Z,12.40
2023-05-08T02:49:01.733Z,12.50
2023-05-08T02:51:18.461Z,12.50
2023-05-08T02:53:34.492Z,12.50
2023-05-08T02:55:45.956Z,12.40
2023-05-08T02:57:56.719Z,12.30
2023-05-08T03:00:06.334Z,12.40
2023-05-08T03:02:15.516Z,12.50
2023-05-08T03:04:28.857Z,11.90
2023-05-08T03:06:39.280Z,11.60
2023-05-08T03:08:51.792Z,11.70
2023-05-08T03:11:03.510Z,11.90
2023-05-08T03:13:12.932Z,12.10
2023-05-08T03:15:24.817Z,12.10
2023-05-08T03:17:34.159Z,12.00
2023-05-08T03:19:42.775Z,12.00
2023-05-08T03:21:52.255Z,12.10
2023-05-08T03:24:03.545Z,12.00
2023-05-08T03:26:14.599Z,12.00
2023-05-08T03:28:21.659Z,11.80
2023-05-08T03:30:28.484Z,11.50
2023-05-08T03:32:42.269Z,11.50
2023-05-08T03:34:48.093Z,11.50
2023-05-08T03:36:59.600Z,11.50
2023-05-08T03:39:08.833Z,11.60
2023-05-08T03:41:15.145Z,11.50
2023-05-08T03:43:30.900Z,11.50
2023-05-08T03:45:40.077Z,11.50
2023-05-08T03:47:46.260Z,11.50
2023-05-08T03:49:53.297Z,11.60
2023-05-08T03:52:01.945Z,11.30
2023-05-08T03:54:09.673Z,11.60
2023-05-08T03:56:14.761Z,11.70
2023-05-08T03:58:27.329Z,11.70
2023-05-08T04:00:41.963Z,11.70
2023-05-08T04:02:55.173Z,11.70
2023-05-08T04:05:22.884Z,11.50
2023-05-08T04:07:38.644Z,11.50
2023-05-08T04:09:59.190Z,11.50
2023-05-08T04:12:08.540Z,11.70
2023-05-08T04:14:19.430Z,11.50
2023-05-08T04:16:27.378Z,11.50
2023-05-08T04:18:33.763Z,11.60
2023-05-08T04:20:41.842Z,11.80
2023-05-08T04:22:49.960Z,11.80
2023-05-08T04:25:09.115Z,11.80
2023-05-08T04:27:18.001Z,11.40
2023-05-08T04:29:23.658Z,11.30
2023-05-08T04:31:32.872Z,11.40
2023-05-08T04:33:38.127Z,11.60
2023-05-08T04:35:43.324Z,11.60
2023-05-08T04:37:48.924Z,11.60
2023-05-08T04:39:57.007Z,11.70
2023-05-08T04:42:06.025Z,11.70
2023-05-08T04:44:15.376Z,11.90
2023-05-08T04:46:21.613Z,11.90
2023-05-08T04:48:27.869Z,11.90
2023-05-08T04:50:32.714Z,11.80
2023-05-08T04:52:42.119Z,11.70
2023-05-08T04:54:54.059Z,11.70
2023-05-08T04:56:58.868Z,11.80
2023-05-08T04:59:08.669Z,11.70
2023-05-08T05:01:13.647Z,11.60
2023-05-08T05:03:21.642Z,11.60
2023-05-08T05:05:27.318Z,11.60
2023-05-08T05:07:36.032Z,11.60
2023-05-08T05:09:41.489Z,11.80
2023-05-08T05:11:47.048Z,11.90
2023-05-08T05:13:53.530Z,11.80
2023-05-08T05:16:04.628Z,11.70
2023-05-08T05:18:10.410Z,11.60
2023-05-08T05:20:16.235Z,11.80
2023-05-08T05:22:21.733Z,11.70
2023-05-08T05:24:28.209Z,11.80
2023-05-08T05:26:44.753Z,11.80
2023-05-08T05:28:51.538Z,11.70
2023-05-08T05:30:56.967Z,11.60
2023-05-08T05:33:09.068Z,11.50
2023-05-08T05:35:15.936Z,11.60
2023-05-08T05:37:20.863Z,11.70
2023-05-08T05:39:28.229Z,11.70
2023-05-08T05:41:37.488Z,11.80
2023-05-08T05:43:43.629Z,11.80
2023-05-08T05:45:48.866Z,11.70
2023-05-08T05:47:54.432Z,11.70
2023-05-08T05:50:04.801Z,11.70
2023-05-08T05:52:10.768Z,11.90
2023-05-08T05:54:20.756Z,11.70
2023-05-08T05:56:25.986Z,11.50
2023-05-08T05:58:31.249Z,11.80
2023-05-08T06:00:37.633Z,12.00
2023-05-08T06:02:46.817Z,11.90
2023-05-08T06:04:56.308Z,11.90
2023-05-08T06:07:04.900Z,11.80
2023-05-08T06:09:10.002Z,11.50
2023-05-08T06:11:18.257Z,11.80
2023-05-08T06:13:25.817Z,11.90
2023-05-08T06:15:31.032Z,11.90
2023-05-08T06:17:37.250Z,12.10
2023-05-08T06:19:44.172Z,12.10
2023-05-08T06:21:53.320Z,12.30
2023-05-08T06:24:03.864Z,12.30
2023-05-08T06:26:11.764Z,12.40
2023-05-08T06:28:16.626Z,12.20
2023-05-08T06:30:21.564Z,12.10
2023-05-08T06:32:29.130Z,12.40
2023-05-08T06:34:34.311Z,12.40
2023-05-08T06:36:41.139Z,12.60
2023-05-08T06:38:47.976Z,12.70
2023-05-08T06:40:55.898Z,12.70
2023-05-08T06:43:04.774Z,12.60
2023-05-08T06:45:11.591Z,12.60
2023-05-08T06:47:16.926Z,12.60
2023-05-08T06:49:25.308Z,12.60
2023-05-08T06:51:32.906Z,12.50
2023-05-08T06:53:37.763Z,12.70
2023-05-08T06:55:46.357Z,12.60
2023-05-08T06:57:53.801Z,12.80
2023-05-08T07:00:01.608Z,12.60
2023-05-08T07:02:07.596Z,12.40
2023-05-08T07:04:12.629Z,12.70
2023-05-08T07:06:18.153Z,12.80
2023-05-08T07:08:23.324Z,12.90
2023-05-08T07:10:28.144Z,12.80
2023-05-08T07:12:35.533Z,12.80
2023-05-08T07:14:44.064Z,13.00
2023-05-08T07:16:53.242Z,13.20
2023-05-08T07:18:58.110Z,13.00
2023-05-08T07:21:03.513Z,13.30
2023-05-08T07:23:08.392Z,13.10
2023-05-08T07:25:16.850Z,13.20
2023-05-08T07:27:22.131Z,13.30
2023-05-08T07:29:27.747Z,13.10
2023-05-08T07:31:36.643Z,13.50
2023-05-08T07:33:41.576Z,13.30
2023-05-08T07:35:47.826Z,13.20
2023-05-08T07:37:52.830Z,13.30
2023-05-08T07:39:58.189Z,13.50
2023-05-08T07:42:04.634Z,13.60
2023-05-08T07:44:09.794Z,13.60
2023-05-08T07:46:22.040Z,13.80
2023-05-08T07:48:29.616Z,13.80
2023-05-08T07:50:34.574Z,13.60
2023-05-08T07:52:39.671Z,13.70
2023-05-08T07:54:44.494Z,13.60
2023-05-08T07:56:49.320Z,13.60
2023-05-08T07:58:54.983Z,13.40
2023-05-08T08:01:00.040Z,13.70
2023-05-08T08:03:08.840Z,14.00
2023-05-08T08:05:16.699Z,14.10
2023-05-08T08:07:21.694Z,14.40
2023-05-08T08:09:26.615Z,14.50
2023-05-08T08:11:36.062Z,14.50
2023-05-08T08:13:41.195Z,14.40
2023-05-08T08:15:46.098Z,14.30
2023-05-08T08:17:51.465Z,14.40
2023-05-08T08:19:56.570Z,14.40
2023-05-08T08:22:09.665Z,14.50
2023-05-08T08:24:14.952Z,14.60
2023-05-08T08:26:20.280Z,14.90
2023-05-08T08:28:25.394Z,15.00
2023-05-08T08:30:30.434Z,14.90
2023-05-08T08:32:37.857Z,14.90
2023-05-08T08:34:43.031Z,15.00
2023-05-08T08:36:48.231Z,14.90
2023-05-08T08:38:58.009Z,14.90
2023-05-08T08:41:03.361Z,15.00
2023-05-08T08:43:09.952Z,15.10
2023-05-08T08:45:16.640Z,15.30
2023-05-08T08:47:23.369Z,15.50
2023-05-08T08:49:32.337Z,15.50
2023-05-08T08:51:45.298Z,15.00
2023-05-08T08:53:53.820Z,15.10
2023-05-08T08:56:03.606Z,15.20
2023-05-08T08:58:16.988Z,15.40
2023-05-08T09:00:24.083Z,15.40
2023-05-08T09:02:32.281Z,15.40
2023-05-08T09:04:37.543Z,15.60
2023-05-08T09:06:43.140Z,15.70
2023-05-08T09:08:48.451Z,15.70
2023-05-08T09:10:54.104Z,15.90
2023-05-08T09:13:01.796Z,15.90
2023-05-08T09:15:08.617Z,16.00
2023-05-08T09:17:15.708Z,15.80
2023-05-08T09:19:26.248Z,15.90
2023-05-08T09:21:33.140Z,16.30
2023-05-08T09:23:39.067Z,16.20
2023-05-08T09:25:45.262Z,16.20
2023-05-08T09:27:50.399Z,16.20
2023-05-08T09:30:17.198Z,16.30
2023-05-08T09:32:22.017Z,16.20
2023-05-08T09:34:28.824Z,16.30
2023-05-08T09:36:40.079Z,16.40
2023-05-08T09:38:45.527Z,16.20
2023-05-08T09:41:08.832Z,16.40
2023-05-08T09:43:16.640Z,16.30
2023-05-08T09:45:37.896Z,16.40
2023-05-08T09:47:50.941Z,16.50
2023-05-08T09:50:05.604Z,16.20
2023-05-08T09:52:20.876Z,16.10
2023-05-08T09:54:25.761Z,16.30
2023-05-08T09:56:40.434Z,16.30
2023-05-08T09:58:46.843Z,16.40
2023-05-08T10:00:54.335Z,16.40
2023-05-08T10:03:01.666Z,16.30
2023-05-08T10:05:25.523Z,16.30
2023-05-08T10:07:32.114Z,16.40
2023-05-08T10:09:50.124Z,16.50
2023-05-08T10:11:58.494Z,16.40
2023-05-08T10:14:03.446Z,16.50
2023-05-08T10:16:17.405Z,16.70
2023-05-08T10:18:24.341Z,16.50
2023-05-08T10:20:32.333Z,16.70
2023-05-08T10:22:42.515Z,16.80
2023-05-08T10:24:50.168Z,16.80
2023-05-08T10:27:06.960Z,16.80
2023-05-08T10:29:22.311Z,16.90
2023-05-08T10:31:40.597Z,17.00
2023-05-08T10:33:47.947Z,17.20
2023-05-08T10:35:53.124Z,17.00
2023-05-08T10:38:00.214Z,17.00
2023-05-08T10:40:06.560Z,17.00
2023-05-08T10:42:11.580Z,17.10
2023-05-08T10:44:16.852Z,17.20
2023-05-08T10:46:31.886Z,17.20
2023-05-08T10:48:50.455Z,17.20
2023-05-08T10:51:07.675Z,17.20
2023-05-08T10:53:16.494Z,17.10
2023-05-08T10:55:31.592Z,17.10
2023-05-08T10:57:40.334Z,17.20
2023-05-08T10:59:48.190Z,17.20
2023-05-08T11:02:08.853Z,17.30
2023-05-08T11:04:28.287Z,17.30
2023-05-08T11:06:59.493Z,17.30
2023-05-08T11:09:06.386Z,17.40
2023-05-08T11:11:22.011Z,17.50
2023-05-08T11:13:30.720Z,17.70
2023-05-08T11:15:40.202Z,17.70
2023-05-08T11:17:56.364Z,17.40
2023-05-08T11:20:05.691Z,17.30
2023-05-08T11:22:27.546Z,17.30
2023-05-08T11:24:40.172Z,17.20
2023-05-08T11:26:45.035Z,17.40
2023-05-08T11:29:00.751Z,17.50
2023-05-08T11:31:06.971Z,17.60
2023-05-08T11:33:20.842Z,17.20
2023-05-08T11:35:49.424Z,17.20
2023-05-08T11:38:18.118Z,17.10
2023-05-08T11:41:10.119Z,17.30
2023-05-08T11:43:55.880Z,17.10
2023-05-08T11:46:05.911Z,17.10
2023-05-08T11:48:11.404Z,17.10
2023-05-08T11:50:17.808Z,17.00
2023-05-08T11:52:29.799Z,17.10
2023-05-08T11:54:34.652Z,16.80
2023-05-08T11:56:47.545Z,16.60
2023-05-08T11:59:04.307Z,16.50
2023-05-08T12:01:09.249Z,16.50
2023-05-08T12:03:16.008Z,16.40
2023-05-08T12:05:29.296Z,16.40
2023-05-08T12:07:45.316Z,16.30
2023-05-08T12:09:50.692Z,16.40
2023-05-08T12:12:00.057Z,16.50
2023-05-08T12:14:06.019Z,16.30
2023-05-08T12:16:13.506Z,16.20
2023-05-08T12:18:19.539Z,16.20
2023-05-08T12:20:26.599Z,16.20
2023-05-08T12:22:31.471Z,16.20
2023-05-08T12:24:38.946Z,16.20
2023-05-08T12:26:44.994Z,16.40
2023-05-08T12:28:54.622Z,16.30
2023-05-08T12:31:02.294Z,16.40
2023-05-08T12:33:11.544Z,16.30
2023-05-08T12:35:17.110Z,16.20
2023-05-08T12:37:27.126Z,16.30
2023-05-08T12:39:40.397Z,16.20
2023-05-08T12:41:50.580Z,16.30
2023-05-08T12:43:57.291Z,16.20
2023-05-08T12:46:04.893Z,16.30
2023-05-08T12:48:13.600Z,16.30
2023-05-08T12:50:21.254Z,16.20
2023-05-08T12:52:26.539Z,16.40
2023-05-08T12:54:39.028Z,16.60
2023-05-08T12:56:48.484Z,16.50
2023-05-08T12:58:53.300Z,16.20
2023-05-08T13:01:10.391Z,16.40
2023-05-08T13:03:19.643Z,16.40
2023-05-08T13:05:27.216Z,16.30
2023-05-08T13:07:34.834Z,16.30
2023-05-08T13:09:40.779Z,16.20
2023-05-08T13:11:49.406Z,16.40
2023-05-08T13:13:54.405Z,16.60
2023-05-08T13:16:00.838Z,16.50
2023-05-08T13:18:07.482Z,16.70
2023-05-08T13:20:14.101Z,16.80
2023-05-08T13:22:23.729Z,16.80
2023-05-08T13:24:30.893Z,16.60
2023-05-08T13:26:36.152Z,16.60
2023-05-08T13:28:44.882Z,16.60
2023-05-08T13:30:52.864Z,16.50
2023-05-08T13:33:04.756Z,16.80
2023-05-08T13:35:11.247Z,16.90
2023-05-08T13:37:19.642Z,17.20
2023-05-08T13:39:24.722Z,17.20
2023-05-08T13:41:31.814Z,17.20
2023-05-08T13:43:40.475Z,17.40
2023-05-08T13:45:47.952Z,17.70
2023-05-08T13:47:56.139Z,17.90
2023-05-08T13:50:01.065Z,18.00
2023-05-08T13:52:06.822Z,18.30
2023-05-08T13:54:11.917Z,18.30
2023-05-08T13:56:19.461Z,18.50
2023-05-08T13:58:27.327Z,18.80
2023-05-08T14:00:36.040Z,19.30
2023-05-08T14:02:51.527Z,19.60
2023-05-08T14:04:57.988Z,19.80
2023-05-08T14:07:02.828Z,20.00
2023-05-08T14:09:07.838Z,20.30
2023-05-08T14:11:17.822Z,20.30
2023-05-08T14:13:25.825Z,20.10
2023-05-08T14:15:36.819Z,19.80
2023-05-08T14:17:47.055Z,20.10
2023-05-08T14:19:51.905Z,20.70
2023-05-08T14:21:57.476Z,20.70
2023-05-08T14:24:02.339Z,20.80
2023-05-08T14:26:14.037Z,20.40
2023-05-08T14:28:18.942Z,20.00
2023-05-08T14:30:24.194Z,20.20
2023-05-08T14:32:29.079Z,20.10
2023-05-08T14:34:36.601Z,19.80
2023-05-08T14:36:41.569Z,19.90
2023-05-08T14:38:48.153Z,19.80
2023-05-08T14:40:54.542Z,19.70
2023-05-08T14:42:59.440Z,19.80
2023-05-08T14:45:04.385Z,20.20
2023-05-08T14:47:10.398Z,20.40
2023-05-08T14:49:25.257Z,20.50
2023-05-08T14:51:41.042Z,20.60
2023-05-08T14:53:46.341Z,20.90
2023-05-08T14:55:52.223Z,21.20
2023-05-08T14:57:57.275Z,21.40
2023-05-08T15:00:04.399Z,21.30
2023-05-08T15:02:10.093Z,21.30
2023-05-08T15:04:20.935Z,21.60
2023-05-08T15:06:28.793Z,21.70
2023-05-08T15:08:38.902Z,21.60
2023-05-08T15:10:44.014Z,21.80
2023-05-08T15:12:50.756Z,21.90
2023-05-08T15:14:55.791Z,21.80
2023-05-08T15:17:00.642Z,22.00
2023-05-08T15:19:08.241Z,22.40
2023-05-08T15:21:14.403Z,22.40
2023-05-08T15:23:22.762Z,22.40
2023-05-08T15:25:30.177Z,22.60
2023-05-08T15:27:36.165Z,22.70
2023-05-08T15:29:41.527Z,23.50
2023-05-08T15:31:46.438Z,24.30
2023-05-08T15:33:53.663Z,24.50
2023-05-08T15:35:58.823Z,25.10
2023-05-08T15:38:07.442Z,25.30
2023-05-08T15:40:13.356Z,25.60
2023-05-08T15:42:21.330Z,25.60
2023-05-08T15:44:28.793Z,25.40
2023-05-08T15:46:39.121Z,25.70
2023-05-08T15:48:45.859Z,25.90
2023-05-08T15:50:56.758Z,26.00
2023-05-08T15:53:02.131Z,25.60
2023-05-08T15:55:09.913Z,24.50
2023-05-08T15:57:14.946Z,24.20
2023-05-08T15:59:22.417Z,24.20
2023-05-08T16:01:29.933Z,24.20
2023-05-08T16:03:37.305Z,24.20
2023-05-08T16:05:42.302Z,24.10
2023-05-08T16:07:51.675Z,24.00
2023-05-08T16:09:59.627Z,23.90
2023-05-08T16:12:04.950Z,23.90
2023-05-08T16:14:11.469Z,24.00
2023-05-08T16:16:19.039Z,24.20
2023-05-08T16:18:23.924Z,24.00
2023-05-08T16:20:28.908Z,24.10
2023-05-08T16:22:33.921Z,23.90
2023-05-08T16:24:38.879Z,23.90
2023-05-08T16:26:46.093Z,23.60
2023-05-08T16:28:51.000Z,23.50
2023-05-08T16:30:56.624Z,23.30
2023-05-08T16:33:08.558Z,23.00
2023-05-08T16:35:14.202Z,23.10
2023-05-08T16:37:21.601Z,23.10
2023-05-08T16:39:26.470Z,23.10
2023-05-08T16:41:34.060Z,23.20
2023-05-08T16:43:40.548Z,23.10
2023-05-08T16:45:48.000Z,22.60
2023-05-08T16:47:52.899Z,21.90
2023-05-08T16:50:00.573Z,22.30
2023-05-08T16:52:07.956Z,22.00
2023-05-08T16:54:12.814Z,22.60
2023-05-08T16:56:18.293Z,23.10
2023-05-08T16:58:27.241Z,23.10
2023-05-08T17:00:34.611Z,22.60
2023-05-08T17:02:43.299Z,22.30
2023-05-08T17:04:51.009Z,23.20
2023-05-08T17:07:00.459Z,22.90
2023-05-08T17:09:05.346Z,21.90
2023-05-08T17:11:10.186Z,21.90
2023-05-08T17:13:15.081Z,23.10
2023-05-08T17:15:23.311Z,24.40
2023-05-08T17:17:30.058Z,23.90
2023-05-08T17:19:39.248Z,24.00
2023-05-08T17:21:44.150Z,25.40
2023-05-08T17:23:51.965Z,25.00
2023-05-08T17:26:03.870Z,25.00
2023-05-08T17:28:11.012Z,25.70
2023-05-08T17:30:17.714Z,24.40
2023-05-08T17:32:22.853Z,24.60
2023-05-08T17:34:30.603Z,25.10
2023-05-08T17:36:38.374Z,23.60
2023-05-08T17:38:46.221Z,23.00
2023-05-08T17:40:54.209Z,22.50
2023-05-08T17:43:03.943Z,22.30
2023-05-08T17:45:17.089Z,21.50
2023-05-08T17:47:22.040Z,21.60
2023-05-08T17:49:27.288Z,22.60
2023-05-08T17:51:34.688Z,23.20
2023-05-08T17:53:41.152Z,23.90
2023-05-08T17:55:47.131Z,25.20
2023-05-08T17:58:01.242Z,25.50
2023-05-08T18:00:06.817Z,24.20
2023-05-08T18:02:15.261Z,24.10
2023-05-08T18:04:22.838Z,24.00
2023-05-08T18:06:27.795Z,23.30
2023-05-08T18:08:36.480Z,22.40
2023-05-08T18:10:42.760Z,21.90
2023-05-08T18:12:51.168Z,21.90
2023-05-08T18:14:59.728Z,21.50
2023-05-08T18:17:04.612Z,21.40
2023-05-08T18:19:18.306Z,21.30
2023-05-08T18:21:26.012Z,20.90
2023-05-08T18:23:36.030Z,20.70
2023-05-08T18:25:40.871Z,20.90
2023-05-08T18:27:48.661Z,21.00
2023-05-08T18:29:53.545Z,20.80
2023-05-08T18:32:05.257Z,20.30
2023-05-08T18:34:10.328Z,20.20
2023-05-08T18:36:16.323Z,20.10
2023-05-08T18:38:21.231Z,20.10
2023-05-08T18:40:28.383Z,19.90
2023-05-08T18:42:33.319Z,20.00
2023-05-08T18:44:39.973Z,19.70
2023-05-08T18:46:44.874Z,19.90
2023-05-08T18:48:53.705Z,19.90
2023-05-08T18:51:00.797Z,19.70
2023-05-08T18:53:09.962Z,19.70
2023-05-08T18:55:14.898Z,19.70
2023-05-08T18:57:21.215Z,19.70
2023-05-08T18:59:29.167Z,19.50
2023-05-08T19:01:34.373Z,19.40
2023-05-08T19:03:39.710Z,19.40
2023-05-08T19:05:47.150Z,19.30
2023-05-08T19:07:54.368Z,19.10
2023-05-08T19:10:03.424Z,19.10
2023-05-08T19:12:08.393Z,19.00
2023-05-08T19:14:14.072Z,18.70
2023-05-08T19:16:23.636Z,18.60
2023-05-08T19:18:30.838Z,18.50
2023-05-08T19:20:38.417Z,18.50
2023-05-08T19:22:49.866Z,18.40
2023-05-08T19:24:54.975Z,18.00
2023-05-08T19:26:59.923Z,18.10
2023-05-08T19:29:07.335Z,18.00
2023-05-08T19:31:12.481Z,18.10
2023-05-08T19:33:21.046Z,18.20
2023-05-08T19:35:28.292Z,18.20
2023-05-08T19:37:33.270Z,18.20
2023-05-08T19:39:42.117Z,18.20
2023-05-08T19:41:49.099Z,17.90
2023-05-08T19:43:54.021Z,17.80
2023-05-08T19:45:59.110Z,17.60
2023-05-08T19:48:08.150Z,17.00
2023-05-08T19:50:19.894Z,16.00
2023-05-08T19:52:27.436Z,16.30
2023-05-08T19:54:33.897Z,16.40
2023-05-08T19:56:41.977Z,16.40
2023-05-08T19:58:51.296Z,15.90
2023-05-08T20:00:56.130Z,16.00
2023-05-08T20:03:05.684Z,16.30
2023-05-08T20:07:20.037Z,16.70
2023-05-08T20:09:38.203Z,16.80
2023-05-08T20:11:47.286Z,16.80
2023-05-08T20:13:52.246Z,16.70
2023-05-08T20:15:58.740Z,16.80
2023-05-08T20:18:04.927Z,16.40
2023-05-08T20:20:11.883Z,16.10
2023-05-08T20:22:18.986Z,16.40
2023-05-08T20:24:24.074Z,16.30
2023-05-08T20:26:30.568Z,16.00
2023-05-08T20:28:38.189Z,15.70
2023-05-08T20:30:43.159Z,16.20
2023-05-08T20:32:57.026Z,16.10
2023-05-08T20:35:01.955Z,16.30
2023-05-08T20:37:07.074Z,15.60
2023-05-08T20:39:12.290Z,16.00
2023-05-08T20:41:20.752Z,16.00
2023-05-08T20:43:25.974Z,16.30
2023-05-08T20:45:39.967Z,16.30
2023-05-08T20:47:45.002Z,16.30
2023-05-08T20:49:52.856Z,16.40
2023-05-08T20:52:00.094Z,16.50
2023-05-08T20:54:05.483Z,16.40
2023-05-08T20:56:10.779Z,16.40
2023-05-08T20:58:37.500Z,16.20
2023-05-08T21:00:45.408Z,15.90
2023-05-08T21:02:50.930Z,15.60
2023-05-08T21:04:58.354Z,15.80
2023-05-08T21:07:03.297Z,16.00
2023-05-08T21:09:08.578Z,15.70
2023-05-08T21:11:14.745Z,15.30
2023-05-08T21:13:22.584Z,15.40
2023-05-08T21:15:32.108Z,15.70
2023-05-08T21:17:39.893Z,15.80
2023-05-08T21:19:46.152Z,15.60
2023-05-08T21:21:53.011Z,15.60
2023-05-08T21:23:57.864Z,15.60
2023-05-08T21:26:03.577Z,15.30
2023-05-08T21:28:09.671Z,15.20
2023-05-08T21:30:16.653Z,15.50
2023-05-08T21:32:29.727Z,15.70
2023-05-08T21:34:37.217Z,15.80
2023-05-08T21:36:43.344Z,15.80
2023-05-08T21:38:52.178Z,15.00
2023-05-08T21:40:57.375Z,14.60
2023-05-08T21:43:03.804Z,14.90
2023-05-08T21:45:11.919Z,15.10
2023-05-08T21:47:17.253Z,14.40
2023-05-08T21:49:24.697Z,14.30
2023-05-08T21:51:36.935Z,14.40
2023-05-08T21:53:42.386Z,14.90
2023-05-08T21:55:47.314Z,14.30
2023-05-08T21:57:59.655Z,13.80
2023-05-08T22:00:04.967Z,13.90
2023-05-08T22:02:13.200Z,14.20
2023-05-08T22:04:18.097Z,14.70
2023-05-08T22:06:26.695Z,14.90
2023-05-08T22:08:34.811Z,14.90
2023-05-08T22:10:39.917Z,14.90
2023-05-08T22:12:44.778Z,15.00
2023-05-08T22:14:49.651Z,15.00
2023-05-08T22:16:56.636Z,14.80
2023-05-08T22:19:03.195Z,14.90
2023-05-08T22:21:13.249Z,15.00
2023-05-08T22:23:18.083Z,14.70
2023-05-08T22:25:29.281Z,14.80
2023-05-08T22:27:34.211Z,14.60
2023-05-08T22:29:39.052Z,14.70
2023-05-08T22:31:45.576Z,14.80
2023-05-08T22:33:53.058Z,14.50
2023-05-08T22:35:58.355Z,14.00
2023-05-08T22:38:05.954Z,13.80
2023-05-08T22:40:13.175Z,13.40
2023-05-08T22:42:20.989Z,13.90
2023-05-08T22:44:29.530Z,14.20
2023-05-08T22:46:39.619Z,14.30
2023-05-08T22:48:44.601Z,14.10
2023-05-08T22:50:49.961Z,14.00
2023-05-08T22:52:56.442Z,13.60
2023-05-08T22:55:01.294Z,14.00
2023-05-08T22:57:08.862Z,13.70
2023-05-08T22:59:16.315Z,13.50
2023-05-08T23:01:21.230Z,13.80
2023-05-08T23:03:26.947Z,13.90
2023-05-08T23:05:33.000Z,13.40
2023-05-08T23:07:38.184Z,12.80
2023-05-08T23:09:43.363Z,13.10
2023-05-08T23:11:50.064Z,13.50
2023-05-08T23:13:59.677Z,13.70
2023-05-08T23:16:07.933Z,13.70
2023-05-08T23:18:13.412Z,13.90
2023-05-08T23:20:21.172Z,13.60
2023-05-08T23:22:28.720Z,13.30
2023-05-08T23:24:38.633Z,13.10
2023-05-08T23:26:43.525Z,13.40
2023-05-08T23:28:50.735Z,13.60
2023-05-08T23:30:55.883Z,13.60
2023-05-08T23:33:03.885Z,13.60
2023-05-08T23:35:10.920Z,13.70
2023-05-08T23:37:16.542Z,13.60
2023-05-08T23:39:24.174Z,13.00
2023-05-08T23:41:31.550Z,12.60
2023-05-08T23:43:36.456Z,12.90
2023-05-08T23:45:42.037Z,13.20
2023-05-08T23:47:47.273Z,13.30
2023-05-08T23:49:56.654Z,13.30
2023-05-08T23:52:01.503Z,13.20
2023-05-08T23:54:08.594Z,13.00
2023-05-08T23:56:13.695Z,12.90
2023-05-08T23:58:18.624Z,13.10
